Blue Island, Illinois
Current Conditions -  °F | °C
As of 11:53 PM on Friday 24 Oct 2014 (Local Time) from KMDW Reporting Station
Overcast Overcast  
Wind Chill: 17°   Ceiling: 4100
Heat Index: 17°   Visibility: 10mi
Dew Point: 11°   Wind: 8mph
Humidity: 67%   Direction: 220°SW
Pressure: 29.93"   Gusts: NA
Location:  41.66°N, 87.68°W
Report Text: KMDW 250453Z 22007KT 10SM OVC041 17/11 A2993 RMK AO2 SLP131 T01670106
Loading
Personal Weather Stations






























Interactive Weather Map
Tropical Storm Tracking
New forecast layout! Learn more

10-Day Weather Forecast

Advertisements
Track Severe Weather on mobile